createdAt,value
2017-11-08T00:00:16.097Z,91.30
2017-11-08T00:02:43.862Z,91.30
2017-11-08T00:05:11.354Z,91.40
2017-11-08T00:07:39.571Z,91.30
2017-11-08T00:10:07.058Z,91.20
2017-11-08T00:12:34.509Z,91.50
2017-11-08T00:15:02.722Z,91.50
2017-11-08T00:17:31.841Z,91.30
2017-11-08T00:19:59.308Z,91.30
2017-11-08T00:22:26.755Z,91.20
2017-11-08T00:24:54.243Z,91.40
2017-11-08T00:27:21.699Z,91.40
2017-11-08T00:29:49.163Z,91.40
2017-11-08T00:32:16.616Z,91.60
2017-11-08T00:34:44.089Z,92.00
2017-11-08T00:37:11.625Z,91.80
2017-11-08T00:39:39.089Z,91.60
2017-11-08T00:42:06.556Z,91.60
2017-11-08T00:44:34.005Z,91.80
2017-11-08T00:47:01.466Z,91.70
2017-11-08T00:49:28.892Z,91.70
2017-11-08T00:51:56.374Z,91.70
2017-11-08T00:54:23.850Z,91.60
2017-11-08T00:56:51.285Z,91.60
2017-11-08T00:59:18.761Z,91.70
2017-11-08T01:01:46.221Z,91.70
2017-11-08T01:04:13.673Z,91.60
2017-11-08T01:06:41.159Z,91.60
2017-11-08T01:09:09.374Z,91.60
2017-11-08T01:11:36.880Z,91.60
2017-11-08T01:14:04.345Z,92.00
2017-11-08T01:16:32.614Z,92.10
2017-11-08T01:19:00.803Z,91.90
2017-11-08T01:21:29.083Z,91.70
2017-11-08T01:23:57.313Z,91.60
2017-11-08T01:26:24.833Z,91.50
2017-11-08T01:28:52.297Z,91.70
2017-11-08T01:31:19.756Z,91.70
2017-11-08T01:33:47.221Z,91.80
2017-11-08T01:36:14.724Z,91.70
2017-11-08T01:38:43.079Z,91.80
2017-11-08T01:41:16.157Z,91.60
2017-11-08T01:43:43.646Z,91.50
2017-11-08T01:46:11.106Z,91.90
2017-11-08T01:48:38.570Z,92.30
2017-11-08T01:51:06.021Z,92.20
2017-11-08T01:53:33.470Z,92.30
2017-11-08T01:56:00.943Z,92.30
2017-11-08T01:58:28.405Z,92.10
2017-11-08T02:00:55.828Z,92.10
2017-11-08T02:03:27.420Z,91.90
2017-11-08T02:05:54.868Z,92.00
2017-11-08T02:08:23.109Z,91.90
2017-11-08T02:10:50.569Z,91.90
2017-11-08T02:13:19.252Z,91.80
2017-11-08T02:15:46.866Z,91.70
2017-11-08T02:18:19.965Z,91.70
2017-11-08T02:20:47.396Z,91.80
2017-11-08T02:23:14.874Z,91.70
2017-11-08T02:25:42.337Z,91.80
2017-11-08T02:28:09.875Z,92.10
2017-11-08T02:30:37.335Z,92.20
2017-11-08T02:33:04.828Z,92.10
2017-11-08T02:35:32.741Z,91.90
2017-11-08T02:38:00.251Z,91.70
2017-11-08T02:40:27.707Z,91.90
2017-11-08T02:42:55.987Z,91.90
2017-11-08T02:45:28.970Z,91.90
2017-11-08T02:47:57.199Z,91.80
2017-11-08T02:50:24.662Z,91.80
2017-11-08T02:52:52.118Z,92.00
2017-11-08T02:55:19.577Z,92.10
2017-11-08T02:57:47.165Z,91.80
2017-11-08T03:00:14.621Z,91.70
2017-11-08T03:02:48.657Z,91.90
2017-11-08T03:05:17.597Z,92.20
2017-11-08T03:07:45.061Z,92.20
2017-11-08T03:10:12.527Z,92.00
2017-11-08T03:12:40.009Z,91.80
2017-11-08T03:15:08.197Z,92.00
2017-11-08T03:17:35.675Z,92.00
2017-11-08T03:20:03.107Z,92.00
2017-11-08T03:22:31.302Z,91.70
2017-11-08T03:24:58.744Z,91.60
2017-11-08T03:27:26.198Z,91.90
2017-11-08T03:29:53.674Z,91.90
2017-11-08T03:32:21.114Z,91.80
2017-11-08T03:34:48.574Z,91.70
2017-11-08T03:37:16.054Z,91.90
2017-11-08T03:39:43.489Z,91.90
2017-11-08T03:42:10.948Z,91.90
2017-11-08T03:44:38.418Z,91.90
2017-11-08T03:47:05.874Z,91.80
2017-11-08T03:49:33.324Z,91.60
2017-11-08T03:52:00.786Z,91.50
2017-11-08T03:54:28.327Z,91.70
2017-11-08T03:56:56.531Z,92.00
2017-11-08T03:59:23.990Z,92.00
2017-11-08T04:01:51.429Z,91.90
2017-11-08T04:04:18.924Z,91.90
2017-11-08T04:06:46.365Z,91.70
2017-11-08T04:09:13.818Z,92.00
2017-11-08T04:11:41.314Z,91.80
2017-11-08T04:14:08.762Z,92.10
2017-11-08T04:16:36.217Z,92.20
2017-11-08T04:19:03.665Z,92.00
2017-11-08T04:21:31.109Z,92.10
2017-11-08T04:23:58.593Z,92.10
2017-11-08T04:26:26.333Z,92.20
2017-11-08T04:28:53.822Z,92.40
2017-11-08T04:31:21.292Z,92.50
2017-11-08T04:33:48.730Z,92.30
2017-11-08T04:36:16.210Z,92.20
2017-11-08T04:38:43.713Z,92.30
2017-11-08T04:41:11.946Z,92.20
2017-11-08T04:43:39.397Z,92.20
2017-11-08T04:46:06.839Z,92.20
2017-11-08T04:48:34.291Z,92.10
2017-11-08T04:51:01.782Z,92.10
2017-11-08T04:53:29.238Z,91.90
2017-11-08T04:55:57.418Z,92.40
2017-11-08T04:58:24.873Z,92.30
2017-11-08T05:00:52.310Z,92.40
2017-11-08T05:03:19.770Z,92.10
2017-11-08T05:05:48.787Z,92.10
2017-11-08T05:08:16.250Z,92.10
2017-11-08T05:10:43.706Z,92.10
2017-11-08T05:13:11.130Z,92.60
2017-11-08T05:15:38.569Z,92.20
2017-11-08T05:18:06.026Z,91.90
2017-11-08T05:20:33.493Z,92.00
2017-11-08T05:23:00.951Z,92.10
2017-11-08T05:25:28.413Z,91.80
2017-11-08T05:27:55.891Z,91.90
2017-11-08T05:30:23.366Z,91.80
2017-11-08T05:32:50.855Z,91.90
2017-11-08T05:35:18.334Z,91.80
2017-11-08T05:37:45.782Z,92.10
2017-11-08T05:40:13.346Z,92.20
2017-11-08T05:42:40.802Z,92.10
2017-11-08T05:45:08.277Z,92.10
2017-11-08T05:47:35.772Z,91.90
2017-11-08T05:50:03.246Z,92.20
2017-11-08T05:52:30.693Z,92.10
2017-11-08T05:54:58.944Z,92.20
2017-11-08T05:57:26.433Z,92.20
2017-11-08T05:59:54.694Z,92.20
2017-11-08T06:02:22.157Z,92.10
2017-11-08T06:04:49.599Z,92.20
2017-11-08T06:07:17.065Z,92.20
2017-11-08T06:09:44.497Z,92.20
2017-11-08T06:12:11.964Z,92.20
2017-11-08T06:14:39.409Z,91.90
2017-11-08T06:17:06.869Z,91.90
2017-11-08T06:19:34.330Z,92.20
2017-11-08T06:22:02.265Z,92.20
2017-11-08T06:24:29.703Z,92.00
2017-11-08T06:26:57.877Z,92.10
2017-11-08T06:29:25.341Z,92.10
2017-11-08T06:31:53.517Z,91.80
2017-11-08T06:34:20.996Z,91.80
2017-11-08T06:36:48.430Z,92.00
2017-11-08T06:39:16.681Z,92.10
2017-11-08T06:41:44.887Z,92.40
2017-11-08T06:44:13.120Z,92.50
2017-11-08T06:46:40.585Z,92.50
2017-11-08T06:49:08.061Z,92.50
2017-11-08T06:51:36.265Z,92.40
2017-11-08T06:54:03.700Z,92.40
2017-11-08T06:56:31.895Z,92.40
2017-11-08T06:58:59.358Z,92.40
2017-11-08T07:01:26.818Z,92.60
2017-11-08T07:03:54.264Z,92.50
2017-11-08T07:06:21.702Z,92.60
2017-11-08T07:08:49.929Z,92.70
2017-11-08T07:11:17.362Z,93.10
2017-11-08T07:13:45.081Z,92.70
2017-11-08T07:16:12.546Z,92.70
2017-11-08T07:18:40.782Z,92.60
2017-11-08T07:21:14.277Z,92.50
2017-11-08T07:23:41.729Z,92.50
2017-11-08T07:26:09.201Z,92.40
2017-11-08T07:28:37.112Z,92.40
2017-11-08T07:31:05.334Z,92.40
2017-11-08T07:33:33.371Z,92.40
2017-11-08T07:36:00.847Z,92.40
2017-11-08T07:38:28.281Z,92.20
2017-11-08T07:40:57.473Z,92.40
2017-11-08T07:43:25.694Z,92.20
2017-11-08T07:45:53.173Z,92.10
2017-11-08T07:48:20.616Z,92.20
2017-11-08T07:50:48.083Z,92.20
2017-11-08T07:53:17.453Z,92.30
2017-11-08T07:55:46.027Z,92.30
2017-11-08T07:58:13.497Z,92.20
2017-11-08T08:00:40.958Z,92.30
2017-11-08T08:03:08.453Z,92.30
2017-11-08T08:05:35.910Z,92.40
2017-11-08T08:08:03.350Z,92.40
2017-11-08T08:10:45.574Z,92.40
2017-11-08T08:13:13.034Z,92.50
2017-11-08T08:15:40.499Z,92.60
2017-11-08T08:18:08.026Z,92.50
2017-11-08T08:20:37.301Z,92.50
2017-11-08T08:23:04.789Z,92.50
2017-11-08T08:25:32.949Z,92.50
2017-11-08T08:28:00.415Z,92.30
2017-11-08T08:30:27.862Z,92.20
2017-11-08T08:32:55.334Z,92.30
2017-11-08T08:35:22.830Z,92.40
2017-11-08T08:37:50.289Z,92.30
2017-11-08T08:40:17.750Z,92.40
2017-11-08T08:42:45.998Z,92.40
2017-11-08T08:45:13.486Z,92.30
2017-11-08T08:47:40.912Z,92.30
2017-11-08T08:50:08.378Z,92.30
2017-11-08T08:52:35.822Z,92.20
2017-11-08T08:55:03.273Z,92.30
2017-11-08T08:57:30.781Z,92.10
2017-11-08T08:59:58.238Z,91.90
2017-11-08T09:02:28.126Z,92.10
2017-11-08T09:04:55.586Z,92.00
2017-11-08T09:07:23.065Z,92.10
2017-11-08T09:09:50.522Z,91.90
2017-11-08T09:12:18.718Z,92.10
2017-11-08T09:14:46.161Z,92.00
2017-11-08T09:17:14.525Z,92.10
2017-11-08T09:19:41.966Z,92.10
2017-11-08T09:22:09.450Z,92.10
2017-11-08T09:24:37.669Z,92.40
2017-11-08T09:27:05.980Z,92.30
2017-11-08T09:29:34.398Z,92.20
2017-11-08T09:32:01.863Z,92.20
2017-11-08T09:34:29.298Z,92.20
2017-11-08T09:36:57.507Z,92.00
2017-11-08T09:39:24.954Z,92.00
2017-11-08T09:41:55.039Z,92.20
2017-11-08T09:44:23.073Z,92.40
2017-11-08T09:46:50.574Z,92.30
2017-11-08T09:49:18.120Z,91.90
2017-11-08T09:51:47.062Z,92.10
2017-11-08T09:54:14.511Z,92.00
2017-11-08T09:56:41.964Z,92.10
2017-11-08T09:59:12.204Z,92.00
2017-11-08T10:01:41.612Z,91.90
2017-11-08T10:04:09.908Z,91.80
2017-11-08T10:06:40.117Z,91.80
2017-11-08T10:09:07.562Z,92.00
2017-11-08T10:11:38.964Z,91.80
2017-11-08T10:14:06.392Z,91.60
2017-11-08T10:16:33.851Z,91.60
2017-11-08T10:19:03.145Z,91.90
2017-11-08T10:21:30.606Z,91.90
2017-11-08T10:23:58.047Z,92.00
2017-11-08T10:26:25.522Z,92.00
2017-11-08T10:28:52.958Z,91.80
2017-11-08T10:31:20.449Z,91.90
2017-11-08T10:33:47.878Z,91.70
2017-11-08T10:36:15.338Z,91.40
2017-11-08T10:38:42.793Z,91.60
2017-11-08T10:41:10.258Z,91.50
2017-11-08T10:43:37.683Z,91.40
2017-11-08T10:46:05.161Z,91.40
2017-11-08T10:48:33.499Z,91.40
2017-11-08T10:51:00.971Z,91.50
2017-11-08T10:53:28.443Z,91.60
2017-11-08T10:55:55.890Z,91.70
2017-11-08T10:58:23.384Z,91.70
2017-11-08T11:00:50.926Z,91.70
2017-11-08T11:03:18.381Z,91.50
2017-11-08T11:05:46.788Z,91.30
2017-11-08T11:08:14.215Z,91.50
2017-11-08T11:10:41.696Z,91.40
2017-11-08T11:13:17.831Z,91.40
2017-11-08T11:15:45.290Z,91.10
2017-11-08T11:18:12.762Z,91.00
2017-11-08T11:20:41.058Z,91.00
2017-11-08T11:23:08.524Z,90.90
2017-11-08T11:25:37.931Z,90.60
2017-11-08T11:28:05.397Z,90.70
2017-11-08T11:30:35.283Z,90.70
2017-11-08T11:33:07.337Z,90.70
2017-11-08T11:35:34.808Z,90.80
2017-11-08T11:38:05.050Z,91.00
2017-11-08T11:40:32.494Z,91.20
2017-11-08T11:42:59.962Z,91.10
2017-11-08T11:45:27.431Z,90.80
2017-11-08T11:48:00.714Z,91.20
2017-11-08T11:50:32.153Z,90.90
2017-11-08T11:52:59.725Z,90.50
2017-11-08T11:55:27.191Z,90.70
2017-11-08T11:57:54.636Z,90.50
2017-11-08T12:00:22.102Z,90.80
2017-11-08T12:02:49.567Z,90.50
2017-11-08T12:05:18.541Z,90.90
2017-11-08T12:07:46.019Z,90.90
2017-11-08T12:10:13.574Z,90.80
2017-11-08T12:12:41.060Z,90.80
2017-11-08T12:15:09.253Z,90.60
2017-11-08T12:17:36.695Z,90.60
2017-11-08T12:20:04.945Z,90.30
2017-11-08T12:22:33.388Z,90.30
2017-11-08T12:25:00.835Z,90.10
2017-11-08T12:27:32.247Z,90.70
2017-11-08T12:30:00.512Z,90.80
2017-11-08T12:32:28.026Z,90.80
2017-11-08T12:34:58.405Z,90.60
2017-11-08T12:37:27.804Z,90.40
2017-11-08T12:39:57.727Z,90.00
2017-11-08T12:42:25.194Z,90.20
2017-11-08T12:44:58.948Z,90.50
2017-11-08T12:47:26.394Z,90.50
2017-11-08T12:49:53.835Z,90.50
2017-11-08T12:52:21.295Z,90.50
2017-11-08T12:54:48.745Z,90.40
2017-11-08T12:57:16.231Z,90.30
2017-11-08T12:59:43.688Z,90.10
2017-11-08T13:02:11.167Z,90.10
2017-11-08T13:04:38.627Z,90.00
2017-11-08T13:07:07.893Z,90.00
2017-11-08T13:09:38.241Z,90.00
2017-11-08T13:12:05.676Z,90.10
2017-11-08T13:14:34.082Z,90.00
2017-11-08T13:17:01.539Z,89.70
2017-11-08T13:19:28.998Z,89.50
2017-11-08T13:21:56.420Z,88.90
2017-11-08T13:24:23.992Z,89.00
2017-11-08T13:26:51.463Z,89.20
2017-11-08T13:29:18.944Z,88.90
2017-11-08T13:31:46.403Z,89.30
2017-11-08T13:34:13.864Z,89.80
2017-11-08T13:36:41.301Z,89.70
2017-11-08T13:39:08.784Z,89.70
2017-11-08T13:41:36.239Z,89.80
2017-11-08T13:44:03.711Z,89.90
2017-11-08T13:46:31.115Z,89.70
2017-11-08T13:48:58.583Z,90.00
2017-11-08T13:51:26.052Z,90.00
2017-11-08T13:53:53.506Z,90.00
2017-11-08T13:56:20.967Z,90.00
2017-11-08T13:58:48.461Z,89.80
2017-11-08T14:01:15.914Z,90.00
2017-11-08T14:03:43.368Z,90.00
2017-11-08T14:06:10.842Z,90.10
2017-11-08T14:08:39.088Z,90.30
2017-11-08T14:11:06.528Z,90.30
2017-11-08T14:13:35.107Z,90.30
2017-11-08T14:16:02.566Z,90.30
2017-11-08T14:18:29.978Z,90.20
2017-11-08T14:20:58.230Z,91.00
2017-11-08T14:23:25.682Z,90.60
2017-11-08T14:25:53.171Z,90.50
2017-11-08T14:28:20.631Z,90.50
2017-11-08T14:30:48.072Z,90.90
2017-11-08T14:33:15.556Z,90.60
2017-11-08T14:35:43.937Z,91.10
2017-11-08T14:38:11.386Z,90.70
2017-11-08T14:40:39.623Z,90.70
2017-11-08T14:43:07.075Z,90.70
2017-11-08T14:45:34.539Z,90.70
2017-11-08T14:48:01.960Z,90.50
2017-11-08T14:50:29.407Z,90.60
2017-11-08T14:55:51.019Z,90.50
2017-11-08T14:58:18.470Z,90.50
2017-11-08T15:00:45.927Z,90.60
2017-11-08T15:03:13.406Z,90.70
2017-11-08T15:05:41.601Z,90.60
2017-11-08T15:08:09.042Z,90.60
2017-11-08T15:10:37.287Z,90.60
2017-11-08T15:13:04.747Z,90.60
2017-11-08T15:15:32.205Z,90.60
2017-11-08T15:17:59.665Z,90.80
2017-11-08T15:20:29.020Z,90.90
2017-11-08T15:22:56.479Z,90.90
2017-11-08T15:25:23.915Z,90.90
2017-11-08T15:27:51.398Z,90.90
2017-11-08T15:30:24.569Z,90.60
2017-11-08T15:32:52.085Z,90.80
2017-11-08T15:35:19.528Z,90.80
2017-11-08T15:37:47.763Z,90.90
2017-11-08T15:40:31.644Z,90.80
2017-11-08T15:42:59.095Z,90.80
2017-11-08T15:45:26.540Z,91.10
2017-11-08T15:47:54.019Z,91.00
2017-11-08T15:50:21.455Z,91.00
2017-11-08T15:52:48.942Z,91.00
2017-11-08T15:55:16.386Z,90.90
2017-11-08T15:57:43.828Z,91.10
2017-11-08T16:00:11.406Z,91.70
2017-11-08T16:02:39.629Z,91.10
2017-11-08T16:05:07.942Z,90.90
2017-11-08T16:07:35.388Z,91.30
2017-11-08T16:10:02.864Z,91.20
2017-11-08T16:12:30.327Z,91.10
2017-11-08T16:14:57.807Z,91.10
2017-11-08T16:17:27.177Z,91.10
2017-11-08T16:19:54.633Z,90.90
2017-11-08T16:22:22.094Z,90.60
2017-11-08T16:24:49.560Z,90.70
2017-11-08T16:27:17.109Z,90.80
2017-11-08T16:29:44.638Z,90.80
2017-11-08T16:32:13.804Z,91.00
2017-11-08T16:34:41.262Z,91.00
2017-11-08T16:37:08.709Z,91.00
2017-11-08T16:39:36.167Z,91.10
2017-11-08T16:42:03.619Z,91.10
2017-11-08T16:44:32.076Z,91.20
2017-11-08T16:46:59.540Z,90.90
2017-11-08T16:49:26.994Z,91.20
2017-11-08T16:51:54.470Z,91.20
2017-11-08T16:54:21.911Z,91.20
2017-11-08T16:56:49.382Z,91.40
2017-11-08T16:59:16.883Z,91.20
2017-11-08T17:01:44.318Z,91.10
2017-11-08T17:04:11.789Z,91.00
2017-11-08T17:06:39.982Z,91.20
2017-11-08T17:09:07.457Z,91.20
2017-11-08T17:11:34.886Z,91.20
2017-11-08T17:14:02.314Z,91.20
2017-11-08T17:16:29.791Z,91.10
2017-11-08T17:18:57.250Z,91.00
2017-11-08T17:21:32.159Z,91.00
2017-11-08T17:24:03.570Z,91.30
2017-11-08T17:26:31.089Z,91.30
2017-11-08T17:29:03.407Z,91.50
2017-11-08T17:31:30.901Z,91.50
2017-11-08T17:33:59.182Z,91.40
2017-11-08T17:36:26.656Z,91.40
2017-11-08T17:38:54.142Z,91.40
2017-11-08T17:41:22.369Z,91.40
2017-11-08T17:43:49.785Z,91.40
2017-11-08T17:46:17.222Z,91.10
2017-11-08T17:48:45.424Z,91.40
2017-11-08T17:51:13.666Z,91.20
2017-11-08T17:53:41.875Z,91.40
2017-11-08T17:56:09.311Z,91.30
2017-11-08T17:58:37.523Z,91.50
2017-11-08T18:01:04.977Z,91.50
2017-11-08T18:03:32.428Z,91.40
2017-11-08T18:05:59.889Z,91.30
2017-11-08T18:08:27.327Z,91.30
2017-11-08T18:10:54.805Z,91.30
2017-11-08T18:13:22.246Z,91.30
2017-11-08T18:15:49.721Z,91.20
2017-11-08T18:18:17.183Z,91.10
2017-11-08T18:20:44.622Z,91.40
2017-11-08T18:23:12.106Z,91.40
2017-11-08T18:25:40.332Z,91.30
2017-11-08T18:28:08.552Z,91.40
2017-11-08T18:30:35.990Z,91.30
2017-11-08T18:33:03.468Z,91.30
2017-11-08T18:35:30.916Z,91.20
2017-11-08T18:37:58.375Z,91.20
2017-11-08T18:40:25.855Z,91.40
2017-11-08T18:42:53.307Z,91.30
2017-11-08T18:45:20.749Z,91.30
2017-11-08T18:47:48.197Z,91.30
2017-11-08T18:50:15.655Z,91.20
2017-11-08T18:52:43.129Z,91.10
2017-11-08T18:55:10.585Z,91.30
2017-11-08T18:57:38.063Z,91.20
2017-11-08T19:00:05.503Z,91.20
2017-11-08T19:02:33.654Z,91.20
2017-11-08T19:05:01.113Z,91.30
2017-11-08T19:07:28.568Z,91.40
2017-11-08T19:09:56.007Z,91.20
2017-11-08T19:12:24.233Z,91.30
2017-11-08T19:14:51.723Z,91.30
2017-11-08T19:17:19.991Z,91.40
2017-11-08T19:19:48.173Z,91.40
2017-11-08T19:22:15.631Z,91.40
2017-11-08T19:24:43.086Z,91.20
2017-11-08T19:27:10.523Z,91.30
2017-11-08T19:29:37.959Z,91.20
2017-11-08T19:32:05.411Z,91.20
2017-11-08T19:34:32.872Z,91.20
2017-11-08T19:37:00.331Z,91.30
2017-11-08T19:39:27.791Z,91.30
2017-11-08T19:41:55.308Z,91.40
2017-11-08T19:44:23.521Z,91.50
2017-11-08T19:46:50.959Z,91.50
2017-11-08T19:49:19.190Z,91.50
2017-11-08T19:51:46.702Z,91.50
2017-11-08T19:54:14.948Z,91.40
2017-11-08T19:56:42.415Z,91.40
2017-11-08T19:59:11.360Z,91.50
2017-11-08T20:01:38.818Z,91.50
2017-11-08T20:04:06.277Z,91.40
2017-11-08T20:06:33.735Z,91.30
2017-11-08T20:09:01.201Z,91.30
2017-11-08T20:11:28.677Z,91.50
2017-11-08T20:13:56.135Z,91.60
2017-11-08T20:16:23.619Z,91.50
2017-11-08T20:18:51.145Z,91.60
2017-11-08T20:21:18.617Z,91.40
2017-11-08T20:23:46.055Z,91.40
2017-11-08T20:26:13.502Z,91.60
2017-11-08T20:28:40.985Z,91.60
2017-11-08T20:31:08.419Z,91.70
2017-11-08T20:33:35.895Z,91.60
2017-11-08T20:36:03.359Z,91.50
2017-11-08T20:38:30.814Z,91.50
2017-11-08T20:40:58.259Z,91.50
2017-11-08T20:43:25.743Z,91.80
2017-11-08T20:45:53.218Z,91.60
2017-11-08T20:48:21.464Z,91.40
2017-11-08T20:50:48.917Z,91.40
2017-11-08T20:53:16.476Z,91.60
2017-11-08T20:55:43.913Z,91.60
2017-11-08T20:58:11.394Z,91.50
2017-11-08T21:00:38.827Z,91.30
2017-11-08T21:03:06.518Z,91.30
2017-11-08T21:05:33.978Z,91.10
2017-11-08T21:08:02.265Z,91.50
2017-11-08T21:10:30.585Z,91.40
2017-11-08T21:12:58.022Z,91.30
2017-11-08T21:15:25.465Z,91.00
2017-11-08T21:17:53.696Z,91.30
2017-11-08T21:20:21.128Z,91.30
2017-11-08T21:22:48.586Z,91.30
2017-11-08T21:25:16.016Z,91.40
2017-11-08T21:27:44.260Z,91.20
2017-11-08T21:30:11.695Z,91.20
2017-11-08T21:32:39.140Z,91.30
2017-11-08T21:35:07.370Z,91.30
2017-11-08T21:37:35.233Z,91.20
2017-11-08T21:40:02.699Z,91.30
2017-11-08T21:42:30.903Z,91.90
2017-11-08T21:44:58.344Z,91.50
2017-11-08T21:47:25.787Z,91.60
2017-11-08T21:49:53.996Z,91.30
2017-11-08T21:52:21.441Z,91.30
2017-11-08T21:54:48.889Z,91.30
2017-11-08T21:57:16.322Z,91.30
2017-11-08T21:59:43.782Z,91.40
2017-11-08T22:02:11.248Z,91.50
2017-11-08T22:04:38.703Z,91.40
2017-11-08T22:07:06.904Z,91.80
2017-11-08T22:09:35.259Z,91.60
2017-11-08T22:12:03.500Z,91.60
2017-11-08T22:14:31.019Z,91.60
2017-11-08T22:16:59.211Z,91.70
2017-11-08T22:19:26.655Z,91.70
2017-11-08T22:21:54.166Z,91.60
2017-11-08T22:24:24.042Z,91.80
2017-11-08T22:26:51.582Z,91.60
2017-11-08T22:29:19.352Z,91.60
2017-11-08T22:31:46.814Z,91.70
2017-11-08T22:34:15.086Z,91.70
2017-11-08T22:36:43.277Z,91.60
2017-11-08T22:39:10.739Z,91.60
2017-11-08T22:41:38.187Z,91.70
2017-11-08T22:44:05.628Z,91.50
2017-11-08T22:46:33.062Z,91.60
2017-11-08T22:49:00.542Z,91.60
2017-11-08T22:51:28.719Z,91.40
2017-11-08T22:53:56.174Z,91.40
2017-11-08T22:56:24.405Z,91.70
2017-11-08T22:58:51.869Z,91.70
2017-11-08T23:01:19.296Z,91.80
2017-11-08T23:03:47.376Z,91.60
2017-11-08T23:06:14.813Z,91.60
2017-11-08T23:08:42.258Z,91.90
2017-11-08T23:11:09.695Z,91.60
2017-11-08T23:13:37.909Z,91.70
2017-11-08T23:16:05.364Z,92.10
2017-11-08T23:18:32.806Z,91.70
2017-11-08T23:21:00.259Z,91.70
2017-11-08T23:23:27.715Z,91.70
2017-11-08T23:25:56.839Z,91.70
2017-11-08T23:28:24.287Z,91.70
2017-11-08T23:30:51.795Z,91.70
2017-11-08T23:33:19.215Z,92.00
2017-11-08T23:35:46.887Z,91.80
2017-11-08T23:38:14.329Z,92.00
2017-11-08T23:40:41.775Z,91.80
2017-11-08T23:43:09.225Z,91.80
2017-11-08T23:45:36.818Z,91.80
2017-11-08T23:48:04.280Z,92.00
2017-11-08T23:50:31.732Z,91.90
2017-11-08T23:52:59.176Z,92.40
2017-11-08T23:55:26.650Z,91.90
2017-11-08T23:57:54.106Z,92.00
